Heber City, UT

5:06 AM MST en Enero 28, 2015 (GMT -0700)
Heber | Change Station
CLOSE
Current Station
Aeropuerto
Location: Heber,
Altura: 5636 ft
Estaciones meteorológicas cercanas

Alt 5636 ft 40.48 °N, 111.43 °W | Updated 11 minutes ago

Muy nublado
Muy nublado
37 ° F
Sensación térmica 37 ° F
N
0
Viento Variable Viento desde Norte

Hoy
Alta -- | Baja -- ° F
--% Posibilidad de precipitaciones
Ayer
Alta -- | Baja -- ° F
Precip. -- pul
7:38 AM 5:38 PM
Gibosa creciente, 64% visible
Presión 30.21 pul
Visibilidad 10.0 Millas
Nubes Muy nublado 3800 ft
Nublado 5000 ft
Punto de rocío 32 ° F
Humedad 81%
Precipitaciones 0.00 pul
Espesor de la nieve No disponible.
UV 0 de una escala de 12
Polen .40 de una escala de 12
Calidad del aire No disponible.
Flu Activity No disponible.
METAR K36U 281155Z AUTO 00000KT 10SM BKN038 OVC050 03/00 A3021 RMK AO2

More Conditions Fewer Conditions

Presión 30.21 pul
Visibilidad 10.0 Millas
Nubes Muy nublado 3800 ft
Nublado 5000 ft
Punto de rocío 32 ° F
Humedad 81%
Precipitaciones 0.00 pul
Espesor de la nieve No disponible.
UV 0 de una escala de 12
Polen .40 de una escala de 12
Calidad del aire No disponible.
Flu Activity No disponible.
METAR K36U 281155Z AUTO 00000KT 10SM BKN038 OVC050 03/00 A3021 RMK AO2

More Conditions Fewer Conditions

10-Day Weather Forecast

Almanac

Astronomía

Jan. 28, 2015 Salida Puesta
Hora real
Crepúsculo civil
Crepúsculo náutico
Crepúsculo astronómico
Luna
Horas de luz
Horas de luz
Tomorrow will be .
, % of the Moon is Illuminated

Extremos de hoy

Máximos del estado Bajos del estado

Community

WunderPhotos

Upload Photos

1,791,127 ¡fotos cargadas!

WunderBlogs® & News

Nearby

Calidad del aire

  Calidad del aire Índice AQ Contaminante
Not available.

Grosos de nieve

Estación Profundido Altura

Actividad de terremotos

Ciudad Distance Mag. Tiempo y dato
Magnitud mínima muestra es 2,5.

Temperaturas de aguas costeras

Lugar Temperatura

Estaciones meteorológicas cercanas